sensor_id;sensor_type;location;lat;lon;timestamp;pressure;altitude;pressure_sealevel;temperature;humidity
42169;BME280;27838;43.858;25.974;2023-02-22T00:00:51;100815.81;;;15.36;39.41
42169;BME280;27838;43.858;25.974;2023-02-22T00:03:19;100812.47;;;15.29;39.42
42169;BME280;27838;43.858;25.974;2023-02-22T00:05:55;100816.81;;;15.28;39.66
42169;BME280;27838;43.858;25.974;2023-02-22T00:08:25;100818.66;;;15.23;39.72
42169;BME280;27838;43.858;25.974;2023-02-22T00:10:56;100820.44;;;15.23;39.93
42169;BME280;27838;43.858;25.974;2023-02-22T00:13:23;100820.47;;;15.21;39.59
42169;BME280;27838;43.858;25.974;2023-02-22T00:15:49;100821.41;;;15.17;39.90
42169;BME280;27838;43.858;25.974;2023-02-22T00:18:27;100825.88;;;15.12;39.57
42169;BME280;27838;43.858;25.974;2023-02-22T00:20:55;100825.13;;;15.05;40.01
42169;BME280;27838;43.858;25.974;2023-02-22T00:23:25;100826.94;;;15.00;39.97
42169;BME280;27838;43.858;25.974;2023-02-22T00:25:54;100828.78;;;14.95;40.21
42169;BME280;27838;43.858;25.974;2023-02-22T00:28:21;100828.88;;;14.90;40.24
42169;BME280;27838;43.858;25.974;2023-02-22T00:30:49;100825.28;;;14.96;40.21
42169;BME280;27838;43.858;25.974;2023-02-22T00:33:16;100833.16;;;14.95;40.05
42169;BME280;27838;43.858;25.974;2023-02-22T00:35:44;100832.19;;;15.00;40.00
42169;BME280;27838;43.858;25.974;2023-02-22T00:38:12;100826.09;;;15.00;40.26
42169;BME280;27838;43.858;25.974;2023-02-22T00:40:39;100833.13;;;14.98;40.18
42169;BME280;27838;43.858;25.974;2023-02-22T00:43:06;100823.56;;;14.92;39.91
42169;BME280;27838;43.858;25.974;2023-02-22T00:45:34;100828.00;;;14.88;40.47
42169;BME280;27838;43.858;25.974;2023-02-22T00:48:03;100824.53;;;14.86;40.27
42169;BME280;27838;43.858;25.974;2023-02-22T00:50:30;100821.09;;;14.84;40.30
42169;BME280;27838;43.858;25.974;2023-02-22T00:52:59;100822.94;;;14.76;40.27
42169;BME280;27838;43.858;25.974;2023-02-22T00:55:32;100815.38;;;14.56;40.59
42169;BME280;27838;43.858;25.974;2023-02-22T00:58:00;100822.34;;;14.59;40.57
42169;BME280;27838;43.858;25.974;2023-02-22T01:00:30;100830.19;;;14.62;40.69
42169;BME280;27838;43.858;25.974;2023-02-22T01:02:57;100821.50;;;14.55;40.61
42169;BME280;27838;43.858;25.974;2023-02-22T01:05:26;100814.47;;;14.57;40.71
42169;BME280;27838;43.858;25.974;2023-02-22T01:07:55;100820.53;;;14.62;40.97
42169;BME280;27838;43.858;25.974;2023-02-22T01:10:24;100817.94;;;14.61;40.64
42169;BME280;27838;43.858;25.974;2023-02-22T01:12:52;100817.97;;;14.58;40.67
42169;BME280;27838;43.858;25.974;2023-02-22T01:15:34;100811.84;;;14.57;40.54
42169;BME280;27838;43.858;25.974;2023-02-22T01:18:01;100812.75;;;14.56;40.35
42169;BME280;27838;43.858;25.974;2023-02-22T01:20:29;100813.59;;;14.60;40.20
42169;BME280;27838;43.858;25.974;2023-02-22T01:22:58;100817.09;;;14.57;40.11
42169;BME280;27838;43.858;25.974;2023-02-22T01:25:27;100813.72;;;14.50;40.33
42169;BME280;27838;43.858;25.974;2023-02-22T01:27:57;100810.19;;;14.50;40.43
42169;BME280;27838;43.858;25.974;2023-02-22T01:30:29;100816.41;;;14.44;40.45
42169;BME280;27838;43.858;25.974;2023-02-22T01:32:58;100813.00;;;14.39;40.43
42169;BME280;27838;43.858;25.974;2023-02-22T01:35:28;100814.91;;;14.29;40.91
42169;BME280;27838;43.858;25.974;2023-02-22T01:38:04;100813.19;;;14.24;40.80
42169;BME280;27838;43.858;25.974;2023-02-22T01:40:45;100819.38;;;14.20;40.75
42169;BME280;27838;43.858;25.974;2023-02-22T01:43:22;100810.75;;;14.10;41.17
42169;BME280;27838;43.858;25.974;2023-02-22T01:48:43;100819.41;;;14.18;40.91
42169;BME280;27838;43.858;25.974;2023-02-22T01:51:17;100813.28;;;14.18;41.04
42169;BME280;27838;43.858;25.974;2023-02-22T01:53:53;100812.41;;;14.17;40.80
42169;BME280;27838;43.858;25.974;2023-02-22T01:56:22;100823.69;;;14.24;40.65
42169;BME280;27838;43.858;25.974;2023-02-22T01:58:58;100821.91;;;14.26;40.56
42169;BME280;27838;43.858;25.974;2023-02-22T02:01:28;100823.69;;;14.24;40.52
42169;BME280;27838;43.858;25.974;2023-02-22T02:03:59;100830.72;;;14.22;40.68
42169;BME280;27838;43.858;25.974;2023-02-22T02:06:30;100823.78;;;14.18;40.34
42169;BME280;27838;43.858;25.974;2023-02-22T02:08:59;100824.69;;;14.13;40.73
42169;BME280;27838;43.858;25.974;2023-02-22T02:11:29;100825.59;;;14.12;40.31
42169;BME280;27838;43.858;25.974;2023-02-22T02:13:58;100817.06;;;13.98;40.75
42169;BME280;27838;43.858;25.974;2023-02-22T02:16:39;100810.91;;;13.97;40.74
42169;BME280;27838;43.858;25.974;2023-02-22T02:19:26;100810.88;;;14.02;40.40
42169;BME280;27838;43.858;25.974;2023-02-22T02:25:10;100808.22;;;14.05;40.00
42169;BME280;27838;43.858;25.974;2023-02-22T02:31:27;100821.22;;;14.11;40.21
42169;BME280;27838;43.858;25.974;2023-02-22T02:34:24;100830.03;;;14.07;40.38
42169;BME280;27838;43.858;25.974;2023-02-22T02:37:07;100832.56;;;14.13;39.79
42169;BME280;27838;43.858;25.974;2023-02-22T02:39:43;100832.53;;;14.16;40.17
42169;BME280;27838;43.858;25.974;2023-02-22T02:42:20;100821.19;;;14.16;39.73
42169;BME280;27838;43.858;25.974;2023-02-22T02:45:00;100815.97;;;14.13;39.62
42169;BME280;27838;43.858;25.974;2023-02-22T02:47:34;100830.81;;;14.15;39.73
42169;BME280;27838;43.858;25.974;2023-02-22T02:50:15;100825.56;;;14.15;39.78
42169;BME280;27838;43.858;25.974;2023-02-22T02:52:45;100825.56;;;14.15;39.49
42169;BME280;27838;43.858;25.974;2023-02-22T02:55:13;100828.94;;;14.24;39.81
42169;BME280;27838;43.858;25.974;2023-02-22T02:57:40;100844.72;;;14.21;39.70
42169;BME280;27838;43.858;25.974;2023-02-22T03:00:08;100839.47;;;14.21;39.59
42169;BME280;27838;43.858;25.974;2023-02-22T03:06:01;100834.31;;;14.14;40.03
42169;BME280;27838;43.858;25.974;2023-02-22T03:08:37;100843.03;;;14.13;40.02
42169;BME280;27838;43.858;25.974;2023-02-22T03:16:47;100840.53;;;14.06;40.13
42169;BME280;27838;43.858;25.974;2023-02-22T03:19:31;100842.28;;;14.07;40.21
42169;BME280;27838;43.858;25.974;2023-02-22T03:22:10;100844.81;;;14.13;40.01
42169;BME280;27838;43.858;25.974;2023-02-22T03:27:45;100855.28;;;14.13;39.71
42169;BME280;27838;43.858;25.974;2023-02-22T03:30:26;100844.81;;;14.11;39.78
42169;BME280;27838;43.858;25.974;2023-02-22T03:32:59;100844.84;;;14.08;40.08
42169;BME280;27838;43.858;25.974;2023-02-22T03:35:33;100850.25;;;13.96;40.27
42169;BME280;27838;43.858;25.974;2023-02-22T03:38:02;100838.19;;;13.84;40.67
42169;BME280;27838;43.858;25.974;2023-02-22T03:40:34;100841.69;;;13.82;40.58
42169;BME280;27838;43.858;25.974;2023-02-22T03:43:07;100843.66;;;13.61;41.26
42169;BME280;27838;43.858;25.974;2023-02-22T03:45:36;100850.66;;;13.59;41.29
42169;BME280;27838;43.858;25.974;2023-02-22T03:50:47;100854.94;;;13.68;41.11
42169;BME280;27838;43.858;25.974;2023-02-22T03:53:14;100861.88;;;13.73;41.10
42169;BME280;27838;43.858;25.974;2023-02-22T03:55:43;100858.34;;;13.77;41.38
42169;BME280;27838;43.858;25.974;2023-02-22T03:58:12;100864.38;;;13.86;40.78
42169;BME280;27838;43.858;25.974;2023-02-22T04:00:39;100863.44;;;13.88;40.62
42169;BME280;27838;43.858;25.974;2023-02-22T04:03:09;100868.72;;;13.84;41.11
42169;BME280;27838;43.858;25.974;2023-02-22T04:05:36;100862.66;;;13.80;41.12
42169;BME280;27838;43.858;25.974;2023-02-22T04:08:03;100871.41;;;13.81;41.18
42169;BME280;27838;43.858;25.974;2023-02-22T04:10:32;100870.53;;;13.78;40.91
42169;BME280;27838;43.858;25.974;2023-02-22T04:13:02;100875.81;;;13.75;41.27
42169;BME280;27838;43.858;25.974;2023-02-22T04:15:31;100874.13;;;13.70;41.47
42169;BME280;27838;43.858;25.974;2023-02-22T04:17:58;100875.06;;;13.64;41.56
42169;BME280;27838;43.858;25.974;2023-02-22T04:20:25;100862.88;;;13.60;41.23
42169;BME280;27838;43.858;25.974;2023-02-22T04:22:53;100873.34;;;13.63;41.47
42169;BME280;27838;43.858;25.974;2023-02-22T04:25:22;100876.81;;;13.65;41.43
42169;BME280;27838;43.858;25.974;2023-02-22T04:27:49;100866.38;;;13.59;41.62
42169;BME280;27838;43.858;25.974;2023-02-22T04:30:17;100870.72;;;13.62;41.39
42169;BME280;27838;43.858;25.974;2023-02-22T04:32:45;100870.72;;;13.63;41.30
42169;BME280;27838;43.858;25.974;2023-02-22T04:35:11;100866.31;;;13.67;41.36
42169;BME280;27838;43.858;25.974;2023-02-22T04:37:38;100868.94;;;13.67;41.33
42169;BME280;27838;43.858;25.974;2023-02-22T04:40:15;100868.16;;;13.57;41.73
42169;BME280;27838;43.858;25.974;2023-02-22T04:42:42;100868.97;;;13.60;41.66
42169;BME280;27838;43.858;25.974;2023-02-22T04:45:09;100869.84;;;13.61;41.78
42169;BME280;27838;43.858;25.974;2023-02-22T04:47:36;100878.50;;;13.66;41.38
42169;BME280;27838;43.858;25.974;2023-02-22T04:50:04;100877.66;;;13.67;41.79
42169;BME280;27838;43.858;25.974;2023-02-22T04:52:31;100877.66;;;13.66;41.47
42169;BME280;27838;43.858;25.974;2023-02-22T04:54:57;100882.88;;;13.69;41.56
42169;BME280;27838;43.858;25.974;2023-02-22T04:57:24;100884.56;;;13.73;41.53
42169;BME280;27838;43.858;25.974;2023-02-22T04:59:51;100886.34;;;13.71;41.65
42169;BME280;27838;43.858;25.974;2023-02-22T05:02:18;100879.44;;;13.64;41.67
42169;BME280;27838;43.858;25.974;2023-02-22T05:04:45;100875.06;;;13.61;42.10
42169;BME280;27838;43.858;25.974;2023-02-22T05:07:11;100876.81;;;13.64;41.91
42169;BME280;27838;43.858;25.974;2023-02-22T05:09:38;100881.13;;;13.66;41.84
42169;BME280;27838;43.858;25.974;2023-02-22T05:12:05;100883.84;;;13.60;41.80
42169;BME280;27838;43.858;25.974;2023-02-22T05:14:31;100884.69;;;13.59;41.89
42169;BME280;27838;43.858;25.974;2023-02-22T05:16:59;100882.06;;;13.62;42.05
42169;BME280;27838;43.858;25.974;2023-02-22T05:19:35;100890.69;;;13.73;41.65
42169;BME280;27838;43.858;25.974;2023-02-22T05:22:02;100886.69;;;14.19;41.00
42169;BME280;27838;43.858;25.974;2023-02-22T05:24:30;100892.41;;;14.49;40.40
42169;BME280;27838;43.858;25.974;2023-02-22T05:26:57;100889.34;;;14.83;39.48
42169;BME280;27838;43.858;25.974;2023-02-22T05:29:23;100888.66;;;15.74;37.77
42169;BME280;27838;43.858;25.974;2023-02-22T05:31:50;100881.09;;;16.05;36.92
42169;BME280;27838;43.858;25.974;2023-02-22T05:34:17;100879.75;;;16.28;36.56
42169;BME280;27838;43.858;25.974;2023-02-22T05:36:43;100889.78;;;16.92;35.36
42169;BME280;27838;43.858;25.974;2023-02-22T05:39:10;100892.94;;;16.67;35.51
42169;BME280;27838;43.858;25.974;2023-02-22T05:41:37;100899.72;;;16.37;36.19
42169;BME280;27838;43.858;25.974;2023-02-22T05:44:03;100894.88;;;16.18;36.39
42169;BME280;27838;43.858;25.974;2023-02-22T05:46:30;100906.78;;;15.91;36.96
42169;BME280;27838;43.858;25.974;2023-02-22T05:48:57;100908.63;;;15.86;36.96
42169;BME280;27838;43.858;25.974;2023-02-22T05:51:23;100908.78;;;15.78;37.50
42169;BME280;27838;43.858;25.974;2023-02-22T05:53:50;100910.78;;;15.64;37.51
42169;BME280;27838;43.858;25.974;2023-02-22T05:56:24;100908.38;;;15.52;38.15
42169;BME280;27838;43.858;25.974;2023-02-22T05:58:52;100914.66;;;15.43;37.94
42169;BME280;27838;43.858;25.974;2023-02-22T06:01:19;100923.44;;;15.40;38.32
42169;BME280;27838;43.858;25.974;2023-02-22T06:03:48;100928.72;;;15.37;38.30
42169;BME280;27838;43.858;25.974;2023-02-22T06:06:16;100923.56;;;15.33;38.66
42169;BME280;27838;43.858;25.974;2023-02-22T06:08:44;100936.63;;;15.36;38.75
42169;BME280;27838;43.858;25.974;2023-02-22T06:11:11;100933.91;;;15.42;38.50
42169;BME280;27838;43.858;25.974;2023-02-22T06:13:38;100934.75;;;15.44;38.63
42169;BME280;27838;43.858;25.974;2023-02-22T06:16:06;100929.53;;;15.42;38.47
42169;BME280;27838;43.858;25.974;2023-02-22T06:18:33;100935.69;;;15.41;38.68
42169;BME280;27838;43.858;25.974;2023-02-22T06:20:59;100945.28;;;15.42;38.69
42169;BME280;27838;43.858;25.974;2023-02-22T06:23:26;100948.78;;;15.43;38.49
42169;BME280;27838;43.858;25.974;2023-02-22T06:25:53;100950.50;;;15.45;38.80
42169;BME280;27838;43.858;25.974;2023-02-22T06:28:20;100961.00;;;15.44;38.43
42169;BME280;27838;43.858;25.974;2023-02-22T06:30:47;100964.56;;;15.41;38.28
42169;BME280;27838;43.858;25.974;2023-02-22T06:33:14;100971.59;;;15.39;38.83
42169;BME280;27838;43.858;25.974;2023-02-22T06:35:41;100965.44;;;15.40;38.44
42169;BME280;27838;43.858;25.974;2023-02-22T06:38:08;100975.19;;;15.32;38.75
42169;BME280;27838;43.858;25.974;2023-02-22T06:40:34;100975.31;;;15.26;39.10
42169;BME280;27838;43.858;25.974;2023-02-22T06:43:01;100974.53;;;15.19;39.49
42169;BME280;27838;43.858;25.974;2023-02-22T06:45:28;100975.53;;;15.10;39.54
42169;BME280;27838;43.858;25.974;2023-02-22T06:47:54;100968.00;;;14.87;39.78
42169;BME280;27838;43.858;25.974;2023-02-22T06:50:23;100977.75;;;14.78;39.99
42169;BME280;27838;43.858;25.974;2023-02-22T06:52:51;100972.50;;;14.78;40.26
42169;BME280;27838;43.858;25.974;2023-02-22T06:55:25;100971.53;;;14.83;40.19
42169;BME280;27838;43.858;25.974;2023-02-22T06:57:53;100971.59;;;14.82;40.17
42169;BME280;27838;43.858;25.974;2023-02-22T07:00:22;100973.31;;;14.81;40.91
42169;BME280;27838;43.858;25.974;2023-02-22T07:02:49;100970.72;;;14.80;40.87
42169;BME280;27838;43.858;25.974;2023-02-22T07:05:19;100973.34;;;14.80;40.84
42169;BME280;27838;43.858;25.974;2023-02-22T07:07:47;100976.88;;;14.77;41.34
42169;BME280;27838;43.858;25.974;2023-02-22T07:10:25;100982.00;;;14.86;41.53
42169;BME280;27838;43.858;25.974;2023-02-22T07:12:53;100988.03;;;14.95;40.82
42169;BME280;27838;43.858;25.974;2023-02-22T07:15:21;100976.56;;;14.99;40.90
42169;BME280;27838;43.858;25.974;2023-02-22T07:17:49;100984.38;;;15.05;40.95
42169;BME280;27838;43.858;25.974;2023-02-22T07:20:17;100988.63;;;15.14;40.80
42169;BME280;27838;43.858;25.974;2023-02-22T07:22:45;100986.78;;;15.20;41.23
42169;BME280;27838;43.858;25.974;2023-02-22T07:25:12;100987.50;;;15.28;40.72
42169;BME280;27838;43.858;25.974;2023-02-22T07:27:40;100994.56;;;15.26;41.20
42169;BME280;27838;43.858;25.974;2023-02-22T07:30:15;100991.88;;;15.31;41.39
42169;BME280;27838;43.858;25.974;2023-02-22T07:32:42;100988.22;;;15.40;41.00
42169;BME280;27838;43.858;25.974;2023-02-22T07:35:29;100985.25;;;15.61;40.98
42169;BME280;27838;43.858;25.974;2023-02-22T07:37:56;100985.06;;;15.72;40.35
42169;BME280;27838;43.858;25.974;2023-02-22T07:40:25;100984.16;;;15.78;40.46
42169;BME280;27838;43.858;25.974;2023-02-22T07:45:27;100981.31;;;15.90;40.87
42169;BME280;27838;43.858;25.974;2023-02-22T07:47:54;100986.47;;;15.93;40.82
42169;BME280;27838;43.858;25.974;2023-02-22T07:50:22;100989.09;;;15.93;40.78
42169;BME280;27838;43.858;25.974;2023-02-22T07:52:51;100989.88;;;15.98;41.00
42169;BME280;27838;43.858;25.974;2023-02-22T07:55:23;100980.94;;;16.09;40.78
42169;BME280;27838;43.858;25.974;2023-02-22T07:57:52;100983.44;;;16.16;40.85
42169;BME280;27838;43.858;25.974;2023-02-22T08:00:27;100989.34;;;16.28;40.54
42169;BME280;27838;43.858;25.974;2023-02-22T08:02:55;100990.22;;;16.28;40.94
42169;BME280;27838;43.858;25.974;2023-02-22T08:05:24;100991.03;;;16.30;41.38
42169;BME280;27838;43.858;25.974;2023-02-22T08:07:51;100982.81;;;16.47;40.82
42169;BME280;27838;43.858;25.974;2023-02-22T08:10:20;100981.53;;;16.67;40.83
42169;BME280;27838;43.858;25.974;2023-02-22T08:12:47;100985.69;;;16.78;40.10
42169;BME280;27838;43.858;25.974;2023-02-22T08:15:40;100985.88;;;16.69;40.35
42169;BME280;27838;43.858;25.974;2023-02-22T08:18:07;100985.84;;;16.71;40.47
42169;BME280;27838;43.858;25.974;2023-02-22T08:20:36;100984.78;;;16.79;40.29
42169;BME280;27838;43.858;25.974;2023-02-22T08:23:04;100988.22;;;16.85;40.00
42169;BME280;27838;43.858;25.974;2023-02-22T08:25:31;100986.28;;;16.93;39.73
42169;BME280;27838;43.858;25.974;2023-02-22T08:28:00;100981.00;;;16.93;39.99
42169;BME280;27838;43.858;25.974;2023-02-22T08:30:28;100987.75;;;17.06;39.80
42169;BME280;27838;43.858;25.974;2023-02-22T08:32:55;100993.19;;;16.98;39.60
42169;BME280;27838;43.858;25.974;2023-02-22T08:35:22;100989.94;;;16.86;40.22
42169;BME280;27838;43.858;25.974;2023-02-22T08:37:55;100993.53;;;16.80;40.93
42169;BME280;27838;43.858;25.974;2023-02-22T08:40:23;100987.31;;;16.86;40.50
42169;BME280;27838;43.858;25.974;2023-02-22T08:42:51;100990.44;;;17.03;40.31
42169;BME280;27838;43.858;25.974;2023-02-22T08:45:18;100985.69;;;17.19;40.02
42169;BME280;27838;43.858;25.974;2023-02-22T08:47:46;100983.00;;;17.21;39.76
42169;BME280;27838;43.858;25.974;2023-02-22T08:50:32;100984.69;;;17.25;39.72
42169;BME280;27838;43.858;25.974;2023-02-22T08:53:01;100981.06;;;17.29;40.06
42169;BME280;27838;43.858;25.974;2023-02-22T08:55:31;100979.47;;;17.23;39.81
42169;BME280;27838;43.858;25.974;2023-02-22T08:57:59;100982.91;;;17.25;39.95
42169;BME280;27838;43.858;25.974;2023-02-22T09:00:30;100979.75;;;17.47;39.63
42169;BME280;27838;43.858;25.974;2023-02-22T09:02:59;100982.84;;;17.64;39.26
42169;BME280;27838;43.858;25.974;2023-02-22T09:05:26;100979.69;;;17.84;38.69
42169;BME280;27838;43.858;25.974;2023-02-22T09:07:52;100972.22;;;17.67;38.68
42169;BME280;27838;43.858;25.974;2023-02-22T09:10:23;100977.47;;;17.69;39.13
42169;BME280;27838;43.858;25.974;2023-02-22T09:12:51;100979.84;;;17.78;38.89
42169;BME280;27838;43.858;25.974;2023-02-22T09:15:20;100981.22;;;17.95;38.46
42169;BME280;27838;43.858;25.974;2023-02-22T09:17:47;100973.88;;;18.06;38.06
42169;BME280;27838;43.858;25.974;2023-02-22T09:20:17;100978.25;;;18.07;37.91
42169;BME280;27838;43.858;25.974;2023-02-22T09:22:44;100955.53;;;18.01;37.88
42169;BME280;27838;43.858;25.974;2023-02-22T09:25:11;100978.41;;;18.34;37.54
42169;BME280;27838;43.858;25.974;2023-02-22T09:27:38;100974.31;;;18.53;36.94
42169;BME280;27838;43.858;25.974;2023-02-22T09:30:06;100971.03;;;18.75;36.64
42169;BME280;27838;43.858;25.974;2023-02-22T09:32:35;100975.63;;;18.99;36.37
42169;BME280;27838;43.858;25.974;2023-02-22T09:35:02;100971.53;;;19.17;36.00
42169;BME280;27838;43.858;25.974;2023-02-22T09:37:29;100974.41;;;19.38;35.45
42169;BME280;27838;43.858;25.974;2023-02-22T09:39:55;100972.34;;;19.46;35.00
42169;BME280;27838;43.858;25.974;2023-02-22T09:42:28;100973.00;;;19.53;35.11
42169;BME280;27838;43.858;25.974;2023-02-22T09:45:15;100974.75;;;19.54;35.21
42169;BME280;27838;43.858;25.974;2023-02-22T09:48:06;100973.78;;;19.56;34.86
42169;BME280;27838;43.858;25.974;2023-02-22T09:50:37;100975.47;;;19.59;34.91
42169;BME280;27838;43.858;25.974;2023-02-22T09:53:35;100976.47;;;19.55;34.52
42169;BME280;27838;43.858;25.974;2023-02-22T09:56:09;100974.75;;;19.54;34.72
42169;BME280;27838;43.858;25.974;2023-02-22T09:58:42;100969.06;;;19.66;34.14
42169;BME280;27838;43.858;25.974;2023-02-22T10:04:22;100966.69;;;19.85;34.34
42169;BME280;27838;43.858;25.974;2023-02-22T10:07:29;100970.34;;;20.06;33.33
42169;BME280;27838;43.858;25.974;2023-02-22T10:09:58;100965.91;;;20.07;33.55
42169;BME280;27838;43.858;25.974;2023-02-22T10:21:05;100961.75;;;20.48;33.68
42169;BME280;27838;43.858;25.974;2023-02-22T10:24:02;100955.19;;;20.59;33.28
42169;BME280;27838;43.858;25.974;2023-02-22T10:26:39;100956.25;;;20.78;32.72
42169;BME280;27838;43.858;25.974;2023-02-22T10:29:23;100951.91;;;20.75;32.75
42169;BME280;27838;43.858;25.974;2023-02-22T10:31:56;100949.47;;;20.71;32.83
42169;BME280;27838;43.858;25.974;2023-02-22T10:34:28;100947.31;;;20.57;32.93
42169;BME280;27838;43.858;25.974;2023-02-22T10:37:22;100945.38;;;20.62;33.14
42169;BME280;27838;43.858;25.974;2023-02-22T10:42:37;100933.00;;;20.63;32.67
42169;BME280;27838;43.858;25.974;2023-02-22T10:45:05;100931.13;;;20.65;33.11
42169;BME280;27838;43.858;25.974;2023-02-22T10:47:43;100926.53;;;20.70;32.52
42169;BME280;27838;43.858;25.974;2023-02-22T10:50:11;100926.31;;;20.76;32.04
42169;BME280;27838;43.858;25.974;2023-02-22T10:52:39;100921.53;;;20.84;32.37
42169;BME280;27838;43.858;25.974;2023-02-22T10:55:12;100914.28;;;21.11;32.28
42169;BME280;27838;43.858;25.974;2023-02-22T10:57:41;100916.44;;;21.46;31.22
42169;BME280;27838;43.858;25.974;2023-02-22T11:00:37;100912.97;;;21.64;31.49
42169;BME280;27838;43.858;25.974;2023-02-22T11:03:19;100907.53;;;21.88;31.02
42169;BME280;27838;43.858;25.974;2023-02-22T11:05:46;100907.00;;;21.80;31.22
42169;BME280;27838;43.858;25.974;2023-02-22T11:13:25;100906.34;;;21.95;30.82
42169;BME280;27838;43.858;25.974;2023-02-22T11:15:54;100909.19;;;21.91;30.68
42169;BME280;27838;43.858;25.974;2023-02-22T11:18:24;100899.34;;;21.93;30.61
42169;BME280;27838;43.858;25.974;2023-02-22T11:21:04;100901.28;;;21.89;30.38
42169;BME280;27838;43.858;25.974;2023-02-22T11:23:33;100895.84;;;21.72;30.66
42169;BME280;27838;43.858;25.974;2023-02-22T11:26:13;100896.59;;;21.75;30.75
42169;BME280;27838;43.858;25.974;2023-02-22T11:28:45;100895.06;;;21.69;30.56
42169;BME280;27838;43.858;25.974;2023-02-22T11:31:19;100892.81;;;21.60;31.11
42169;BME280;27838;43.858;25.974;2023-02-22T11:36:34;100890.56;;;21.72;30.54
42169;BME280;27838;43.858;25.974;2023-02-22T11:39:03;100894.28;;;21.67;30.85
42169;BME280;27838;43.858;25.974;2023-02-22T11:41:32;100891.09;;;21.59;30.84
42169;BME280;27838;43.858;25.974;2023-02-22T11:44:31;100900.19;;;21.54;30.95
42169;BME280;27838;43.858;25.974;2023-02-22T11:47:01;100900.00;;;21.58;30.25
42169;BME280;27838;43.858;25.974;2023-02-22T11:49:35;100886.44;;;21.64;29.66
42169;BME280;27838;43.858;25.974;2023-02-22T11:55:22;100890.78;;;21.46;30.01
42169;BME280;27838;43.858;25.974;2023-02-22T12:01:25;100881.91;;;21.25;30.29
42169;BME280;27838;43.858;25.974;2023-02-22T12:09:54;100880.81;;;21.09;30.66
42169;BME280;27838;43.858;25.974;2023-02-22T12:12:53;100883.66;;;21.04;30.66
42169;BME280;27838;43.858;25.974;2023-02-22T12:15:43;100887.94;;;20.86;30.91
42169;BME280;27838;43.858;25.974;2023-02-22T12:20:58;100883.22;;;20.93;30.51
42169;BME280;27838;43.858;25.974;2023-02-22T12:23:30;100883.84;;;21.00;30.49
42169;BME280;27838;43.858;25.974;2023-02-22T12:26:19;100879.16;;;21.06;30.24
42169;BME280;27838;43.858;25.974;2023-02-22T12:31:29;100875.66;;;21.26;30.08
42169;BME280;27838;43.858;25.974;2023-02-22T12:34:07;100869.19;;;21.34;29.70
42169;BME280;27838;43.858;25.974;2023-02-22T12:36:47;100871.03;;;21.31;29.45
42169;BME280;27838;43.858;25.974;2023-02-22T12:40:02;100868.78;;;21.22;29.94
42169;BME280;27838;43.858;25.974;2023-02-22T12:45:19;100866.72;;;21.29;29.82
42169;BME280;27838;43.858;25.974;2023-02-22T12:47:54;100877.00;;;21.37;29.70
42169;BME280;27838;43.858;25.974;2023-02-22T12:50:28;100874.09;;;21.43;29.50
42169;BME280;27838;43.858;25.974;2023-02-22T12:53:19;100874.81;;;21.48;29.58
42169;BME280;27838;43.858;25.974;2023-02-22T12:56:19;100877.66;;;21.42;30.11
42169;BME280;27838;43.858;25.974;2023-02-22T12:58:50;100874.34;;;21.16;30.29
42169;BME280;27838;43.858;25.974;2023-02-22T13:01:22;100875.53;;;20.87;30.66
42169;BME280;27838;43.858;25.974;2023-02-22T13:03:52;100876.66;;;20.81;30.87
42169;BME280;27838;43.858;25.974;2023-02-22T13:12:39;100868.38;;;20.89;30.54
42169;BME280;27838;43.858;25.974;2023-02-22T13:15:31;100873.34;;;20.97;30.29
42169;BME280;27838;43.858;25.974;2023-02-22T13:24:03;100875.22;;;20.94;30.14
42169;BME280;27838;43.858;25.974;2023-02-22T13:26:59;100892.91;;;20.94;30.33
42169;BME280;27838;43.858;25.974;2023-02-22T13:29:32;100885.28;;;20.86;30.72
42169;BME280;27838;43.858;25.974;2023-02-22T13:51:52;100888.28;;;20.77;30.81
42169;BME280;27838;43.858;25.974;2023-02-22T14:08:06;100888.72;;;20.88;31.08
42169;BME280;27838;43.858;25.974;2023-02-22T14:13:17;100900.91;;;20.92;31.19
42169;BME280;27838;43.858;25.974;2023-02-22T14:18:43;100897.84;;;20.81;31.34
42169;BME280;27838;43.858;25.974;2023-02-22T14:21:14;100896.34;;;20.74;31.44
42169;BME280;27838;43.858;25.974;2023-02-22T14:23:43;100897.34;;;20.71;31.63
42169;BME280;27838;43.858;25.974;2023-02-22T14:29:15;100898.66;;;20.60;31.92
42169;BME280;27838;43.858;25.974;2023-02-22T14:34:11;100897.41;;;20.46;32.43
42169;BME280;27838;43.858;25.974;2023-02-22T14:39:33;100903.84;;;20.39;32.38
42169;BME280;27838;43.858;25.974;2023-02-22T14:47:38;100905.41;;;20.21;32.91
42169;BME280;27838;43.858;25.974;2023-02-22T14:52:41;100909.44;;;20.08;33.38
42169;BME280;27838;43.858;25.974;2023-02-22T14:55:18;100900.66;;;20.06;33.37
42169;BME280;27838;43.858;25.974;2023-02-22T15:00:35;100908.91;;;19.98;33.29
42169;BME280;27838;43.858;25.974;2023-02-22T15:03:02;100908.94;;;19.96;33.28
42169;BME280;27838;43.858;25.974;2023-02-22T15:05:35;100909.00;;;19.95;33.18
42169;BME280;27838;43.858;25.974;2023-02-22T15:08:07;100907.34;;;19.92;33.29
42169;BME280;27838;43.858;25.974;2023-02-22T15:10:38;100914.47;;;19.90;33.11
42169;BME280;27838;43.858;25.974;2023-02-22T15:13:19;100906.84;;;19.81;33.58
42169;BME280;27838;43.858;25.974;2023-02-22T15:15:55;100908.59;;;19.82;33.49
42169;BME280;27838;43.858;25.974;2023-02-22T15:18:45;100911.44;;;19.76;33.73
42169;BME280;27838;43.858;25.974;2023-02-22T15:21:16;100909.94;;;19.67;34.04
42169;BME280;27838;43.858;25.974;2023-02-22T15:23:48;100917.06;;;19.65;34.05